Time;durP1;ratioP1;P1;durP2;ratioP2;P2;SDS_P1;SDS_P2;PMS_P1;PMS_P2;Temp;Humidity;BMP_temperature;BMP_pressure;BME280_temperature;BME280_humidity;BME280_pressure;Samples;Min_cycle;Max_cycle;Signal;HPM_P1;HPM_P2
2022/09/04 00:00:11;;;;;;;1.70;1.60;;;17.00;99.90;;;;;;5038763;28;20156;-80
2022/09/04 00:02:58;;;;;;;1.83;1.70;;;17.00;99.90;;;;;;5039183;28;20254;-80
2022/09/04 00:05:47;;;;;;;2.17;1.70;;;16.90;99.90;;;;;;5037695;28;20226;-81
2022/09/04 00:08:31;;;;;;;1.70;1.60;;;16.90;99.90;;;;;;5037843;28;20614;-81
2022/09/04 00:11:11;;;;;;;1.70;1.60;;;16.90;99.90;;;;;;5038356;28;20270;-81
2022/09/04 00:13:43;;;;;;;2.03;1.60;;;16.90;1.00;;;;;;5051810;28;20165;-80
2022/09/04 00:16:15;;;;;;;1.70;1.60;;;16.80;99.90;;;;;;5047035;28;20156;-80
2022/09/04 00:19:08;;;;;;;2.60;1.53;;;16.80;1.00;;;;;;5040786;28;20203;-79
2022/09/04 00:21:47;;;;;;;3.87;1.80;;;16.80;1.00;;;;;;5036101;28;20199;-79
2022/09/04 00:24:18;;;;;;;3.03;1.73;;;16.80;99.90;;;;;;5036920;28;20176;-79
2022/09/04 00:26:53;;;;;;;2.13;1.60;;;16.70;99.90;;;;;;5035856;28;20208;-80
2022/09/04 00:29:32;;;;;;;2.20;1.80;;;16.70;99.90;;;;;;5035707;28;20195;-80
2022/09/04 00:32:33;;;;;;;1.97;1.70;;;16.60;99.90;;;;;;5037120;28;20243;-80
2022/09/04 00:35:17;;;;;;;1.63;1.53;;;16.60;99.90;;;;;;5037025;28;20149;-80
2022/09/04 00:37:52;;;;;;;3.40;1.57;;;16.60;1.00;;;;;;5035111;28;20200;-80
2022/09/04 00:40:23;;;;;;;3.07;1.90;;;16.50;1.00;;;;;;5037184;28;20164;-80
2022/09/04 00:43:20;;;;;;;2.10;1.70;;;16.50;1.00;;;;;;5037244;28;20177;-80
2022/09/04 00:45:59;;;;;;;2.80;1.40;;;16.50;1.00;;;;;;5037241;28;20239;-80
2022/09/04 00:48:58;;;;;;;1.80;1.70;;;16.50;1.00;;;;;;5037159;28;20219;-80
2022/09/04 00:51:42;;;;;;;2.90;1.80;;;16.40;1.00;;;;;;5037083;28;20175;-80
2022/09/04 00:54:13;;;;;;;3.40;1.90;;;16.40;19.10;;;;;;5037204;28;20156;-78
2022/09/04 00:57:12;;;;;;;2.40;1.90;;;16.30;12.60;;;;;;5036725;28;20300;-80
2022/09/04 01:00:07;;;;;;;4.40;1.70;;;16.30;94.40;;;;;;5035737;28;20184;-79
2022/09/04 01:03:02;;;;;;;4.70;1.60;;;16.30;34.70;;;;;;5035854;28;20653;-80
2022/09/04 01:06:06;;;;;;;2.47;1.80;;;16.30;1.00;;;;;;5035638;28;20204;-79
2022/09/04 01:08:40;;;;;;;2.60;1.70;;;16.30;78.40;;;;;;5036967;28;20206;-80
2022/09/04 01:11:34;;;;;;;2.10;1.70;;;16.20;99.90;;;;;;5037147;28;20194;-79
2022/09/04 01:14:09;;;;;;;1.83;1.70;;;16.20;99.90;;;;;;5037130;28;20492;-80
2022/09/04 01:16:57;;;;;;;2.40;1.80;;;16.30;99.90;;;;;;5036544;28;20261;-80
2022/09/04 01:19:44;;;;;;;3.27;1.60;;;16.20;99.90;;;;;;5036368;28;20176;-80
2022/09/04 01:22:15;;;;;;;2.23;1.63;;;16.10;99.90;;;;;;5037087;28;20164;-80
2022/09/04 01:25:14;;;;;;;2.00;1.80;;;16.10;99.90;;;;;;5036307;28;20236;-79
2022/09/04 01:28:08;;;;;;;2.20;1.90;;;16.10;1.00;;;;;;5036816;28;20737;-78
2022/09/04 01:34:26;;;;;;;2.10;1.80;;;16.00;1.00;;;;;;5035966;28;20532;-76
2022/09/04 01:37:15;;;;;;;2.70;2.00;;;16.00;1.00;;;;;;5036079;28;20298;-80
2022/09/04 01:39:45;;;;;;;2.17;1.90;;;15.90;1.00;;;;;;5032464;28;20271;-80
2022/09/04 01:42:30;;;;;;;2.43;1.73;;;15.90;1.00;;;;;;5036247;28;20526;-80
2022/09/04 01:44:56;;;;;;;3.90;1.80;;;15.90;1.00;;;;;;5037530;28;20172;-80
2022/09/04 01:47:42;;;;;;;3.40;1.70;;;15.90;1.00;;;;;;5038006;28;20267;-80
2022/09/04 01:50:15;;;;;;;2.20;2.00;;;15.90;1.00;;;;;;5035768;28;20239;-79
2022/09/04 01:53:08;;;;;;;2.00;1.80;;;15.80;1.00;;;;;;5037450;28;20526;-80
2022/09/04 01:55:42;;;;;;;1.67;1.53;;;15.80;1.00;;;;;;5037526;28;20223;-80
2022/09/04 01:58:40;;;;;;;1.53;1.43;;;15.80;99.90;;;;;;5043456;28;20215;-78
2022/09/04 02:01:26;;;;;;;2.10;1.83;;;15.80;99.90;;;;;;5048846;28;20242;-80
2022/09/04 02:04:06;;;;;;;2.03;1.83;;;15.70;1.00;;;;;;5041882;28;20168;-80
2022/09/04 02:06:50;;;;;;;2.27;1.87;;;15.70;1.00;;;;;;5036033;28;20263;-80
2022/09/04 02:09:36;;;;;;;2.43;2.03;;;15.70;1.00;;;;;;5034482;28;20692;-80
2022/09/04 02:12:16;;;;;;;1.83;1.70;;;15.70;1.00;;;;;;5036525;28;20180;-80
2022/09/04 02:15:02;;;;;;;2.37;1.73;;;15.70;1.00;;;;;;5036491;28;20525;-79
2022/09/04 02:17:42;;;;;;;1.60;1.50;;;15.70;1.00;;;;;;5035831;28;20184;-80
2022/09/04 02:20:16;;;;;;;2.00;1.77;;;15.70;1.00;;;;;;5034573;28;20183;-80
2022/09/04 02:23:01;;;;;;;2.10;1.90;;;15.60;1.00;;;;;;5036020;28;20558;-79
2022/09/04 02:25:40;;;;;;;3.13;1.47;;;15.60;1.00;;;;;;5035811;28;20661;-80
2022/09/04 02:28:30;;;;;;;2.33;1.67;;;15.60;1.00;;;;;;5035501;28;20662;-80
2022/09/04 02:31:00;;;;;;;2.63;1.90;;;15.60;1.00;;;;;;5034675;28;20598;-80
2022/09/04 02:33:34;;;;;;;1.60;1.50;;;15.50;1.00;;;;;;5035860;28;20165;-79
2022/09/04 02:36:30;;;;;;;2.07;1.80;;;15.50;1.00;;;;;;5035340;28;20186;-80
2022/09/04 02:39:28;;;;;;;1.87;1.57;;;15.50;1.00;;;;;;5035574;28;20215;-79
2022/09/04 02:42:09;;;;;;;2.17;1.80;;;15.50;1.00;;;;;;5027852;28;20203;-80
2022/09/04 02:44:50;;;;;;;2.07;1.50;;;15.50;1.00;;;;;;5036268;28;20168;-79
2022/09/04 02:47:21;;;;;;;2.07;1.70;;;15.40;1.00;;;;;;5039609;28;20196;-79
2022/09/04 02:49:54;;;;;;;1.73;1.63;;;15.40;1.00;;;;;;5038309;28;20694;-80
2022/09/04 02:52:50;;;;;;;2.20;1.57;;;15.50;1.00;;;;;;5037847;28;20168;-79
2022/09/04 02:55:31;;;;;;;2.20;2.00;;;15.40;1.00;;;;;;5038059;28;20168;-80
2022/09/04 02:58:13;;;;;;;3.27;2.03;;;15.40;1.00;;;;;;5039230;28;20204;-80
2022/09/04 03:01:23;;;;;;;2.23;1.87;;;15.30;1.00;;;;;;5038195;28;20193;-78
2022/09/04 03:04:14;;;;;;;1.80;1.70;;;15.30;1.80;;;;;;5038886;28;20161;-80
2022/09/04 03:06:58;;;;;;;3.33;1.90;;;15.30;18.10;;;;;;5038457;28;20188;-79
2022/09/04 03:09:30;;;;;;;2.97;1.90;;;15.30;62.00;;;;;;5039519;28;20192;-80
2022/09/04 03:12:25;;;;;;;2.50;2.17;;;15.40;99.90;;;;;;5039328;28;20213;-79
2022/09/04 03:15:18;;;;;;;2.97;2.13;;;15.40;99.90;;;;;;5037959;28;20657;-80
2022/09/04 03:17:45;;;;;;;2.23;2.03;;;15.40;99.90;;;;;;5037454;28;20188;-79
2022/09/04 03:20:26;;;;;;;1.80;1.70;;;15.40;99.40;;;;;;5039148;28;20175;-80
2022/09/04 03:23:11;;;;;;;1.93;1.80;;;15.40;44.00;;;;;;5039140;28;20262;-80
2022/09/04 03:25:43;;;;;;;1.60;1.50;;;15.30;1.00;;;;;;5038204;28;20589;-79
2022/09/04 03:28:21;;;;;;;1.70;1.60;;;15.30;1.00;;;;;;5038865;28;20286;-80
2022/09/04 03:30:48;;;;;;;2.47;2.27;;;15.30;1.00;;;;;;5039139;28;20164;-80
2022/09/04 03:33:23;;;;;;;1.90;1.70;;;15.40;1.00;;;;;;5038741;28;20612;-79
2022/09/04 03:35:52;;;;;;;1.77;1.60;;;15.20;1.00;;;;;;5037585;28;20179;-79
2022/09/04 03:38:22;;;;;;;1.80;1.57;;;15.20;1.00;;;;;;5038539;28;20179;-80
2022/09/04 03:40:47;;;;;;;2.20;2.00;;;15.30;1.00;;;;;;5038772;28;20180;-80
2022/09/04 03:43:26;;;;;;;2.03;1.80;;;15.20;1.00;;;;;;5038842;28;20640;-80
2022/09/04 03:46:01;;;;;;;2.07;1.83;;;15.20;1.00;;;;;;5038162;28;20160;-80
2022/09/04 03:48:26;;;;;;;2.83;1.73;;;15.20;1.00;;;;;;5037189;28;20216;-80
2022/09/04 03:51:10;;;;;;;4.70;1.77;;;15.10;1.00;;;;;;5037832;28;20251;-80
2022/09/04 03:53:42;;;;;;;2.77;2.00;;;15.10;1.00;;;;;;5037780;28;20274;-80
2022/09/04 03:56:36;;;;;;;1.80;1.70;;;15.10;1.00;;;;;;5036645;28;20533;-80
2022/09/04 03:59:07;;;;;;;1.90;1.70;;;15.00;1.00;;;;;;5038502;28;20172;-80
2022/09/04 04:01:59;;;;;;;2.97;1.60;;;15.00;1.00;;;;;;5038461;28;20255;-79
2022/09/04 04:04:51;;;;;;;2.50;1.83;;;15.00;1.00;;;;;;5036440;28;20184;-80
2022/09/04 04:07:46;;;;;;;1.40;1.30;;;15.00;1.00;;;;;;5036707;28;20196;-80
2022/09/04 04:10:18;;;;;;;1.70;1.60;;;15.00;1.00;;;;;;5037036;28;20208;-80
2022/09/04 04:13:09;;;;;;;1.63;1.53;;;14.90;1.00;;;;;;5037746;28;20176;-79
2022/09/04 04:15:54;;;;;;;3.60;1.57;;;14.90;1.00;;;;;;5038443;28;20172;-80
2022/09/04 04:18:47;;;;;;;5.33;2.00;;;14.90;1.00;;;;;;5038062;28;20172;-80
2022/09/04 04:21:21;;;;;;;2.47;1.67;;;14.80;1.00;;;;;;5037098;28;20724;-80
2022/09/04 04:24:17;;;;;;;1.57;1.47;;;14.90;4.10;;;;;;5037463;28;20167;-80
2022/09/04 04:26:56;;;;;;;3.40;1.93;;;14.80;12.60;;;;;;5037893;28;20199;-79
2022/09/04 04:29:59;;;;;;;3.23;1.80;;;14.80;58.60;;;;;;5037932;28;20188;-80
2022/09/04 04:33:02;;;;;;;2.10;1.90;;;14.90;56.40;;;;;;5037350;28;20226;-79
2022/09/04 04:35:40;;;;;;;2.63;1.70;;;14.80;89.70;;;;;;5037336;28;20254;-80
2022/09/04 04:38:30;;;;;;;2.50;1.90;;;14.80;89.10;;;;;;5036466;28;20281;-80
2022/09/04 04:41:03;;;;;;;2.57;1.90;;;14.70;99.90;;;;;;5036088;28;20169;-79
2022/09/04 04:43:53;;;;;;;2.37;1.80;;;14.70;93.10;;;;;;5036763;28;20172;-80
2022/09/04 04:46:41;;;;;;;1.90;1.80;;;14.70;99.90;;;;;;5035596;28;20203;-80
2022/09/04 04:49:33;;;;;;;2.13;1.93;;;14.70;99.90;;;;;;5037176;28;20184;-79
2022/09/04 04:52:18;;;;;;;2.97;1.70;;;14.70;99.90;;;;;;5037713;28;20167;-80
2022/09/04 04:55:05;;;;;;;4.30;1.93;;;14.70;99.90;;;;;;5036143;28;20175;-80
2022/09/04 04:57:36;;;;;;;1.50;1.40;;;14.60;99.90;;;;;;5037616;28;20267;-79
2022/09/04 05:00:22;;;;;;;2.00;1.77;;;14.60;99.90;;;;;;5037248;28;20232;-80
2022/09/04 05:02:59;;;;;;;2.33;1.70;;;14.60;99.90;;;;;;5034840;28;20250;-79
2022/09/04 05:05:46;;;;;;;3.60;1.70;;;14.60;99.90;;;;;;5036096;28;20175;-80
2022/09/04 05:08:32;;;;;;;3.00;1.97;;;14.60;99.90;;;;;;5036424;28;20192;-80
2022/09/04 05:11:21;;;;;;;1.87;1.70;;;14.60;99.90;;;;;;5035276;28;20165;-79
2022/09/04 05:14:17;;;;;;;4.30;1.90;;;14.60;99.90;;;;;;5025278;28;20216;-80
2022/09/04 05:16:49;;;;;;;2.37;1.50;;;14.60;99.90;;;;;;5035021;28;20254;-79
2022/09/04 05:19:18;;;;;;;1.93;1.70;;;14.60;99.90;;;;;;5034917;28;20191;-80
2022/09/04 05:21:49;;;;;;;2.00;1.60;;;14.60;99.90;;;;;;5036338;28;20177;-79
2022/09/04 05:24:47;;;;;;;1.80;1.70;;;14.60;99.90;;;;;;5036540;28;20648;-80
2022/09/04 05:27:21;;;;;;;2.07;1.90;;;14.60;99.90;;;;;;5034852;28;20235;-80
2022/09/04 05:29:50;;;;;;;2.37;1.77;;;14.60;99.90;;;;;;5034966;28;20203;-80
2022/09/04 05:32:32;;;;;;;2.13;1.90;;;14.70;99.90;;;;;;5036252;28;20178;-79
2022/09/04 05:35:08;;;;;;;2.00;1.80;;;14.70;99.90;;;;;;5034123;28;20182;-81
2022/09/04 05:38:00;;;;;;;2.43;2.00;;;14.70;99.90;;;;;;5036572;28;20201;-80
2022/09/04 05:40:29;;;;;;;3.80;1.97;;;14.70;99.90;;;;;;5034898;28;20187;-80
2022/09/04 05:43:05;;;;;;;2.13;1.70;;;14.80;99.90;;;;;;5036765;28;20605;-80
2022/09/04 05:46:00;;;;;;;2.30;2.10;;;14.80;99.90;;;;;;5036737;28;20176;-80
2022/09/04 05:48:31;;;;;;;5.80;2.20;;;14.80;99.90;;;;;;5035677;28;20216;-80
2022/09/04 05:51:31;;;;;;;1.90;1.80;;;14.80;99.90;;;;;;5035606;28;20596;-79
2022/09/04 05:54:21;;;;;;;2.77;2.00;;;14.90;99.90;;;;;;5035433;28;20165;-77
2022/09/04 05:56:53;;;;;;;2.87;1.90;;;14.90;99.90;;;;;;5034752;28;20590;-79
2022/09/04 05:59:18;;;;;;;2.93;2.30;;;15.00;99.90;;;;;;5033467;28;20180;-80
2022/09/04 06:02:25;;;;;;;2.13;1.93;;;15.00;99.90;;;;;;5033632;28;20234;-80
2022/09/04 06:05:08;;;;;;;2.60;2.40;;;15.00;99.90;;;;;;5033463;28;20645;-81
2022/09/04 06:07:51;;;;;;;2.63;2.43;;;15.10;99.90;;;;;;5033943;28;20200;-80
2022/09/04 06:10:25;;;;;;;3.43;2.47;;;15.10;99.90;;;;;;5034850;28;20228;-81
2022/09/04 06:13:09;;;;;;;2.70;2.50;;;15.20;99.90;;;;;;5035165;28;20153;-80
2022/09/04 06:15:37;;;;;;;3.20;2.83;;;15.30;99.90;;;;;;5033979;28;20590;-80
2022/09/04 06:18:35;;;;;;;2.80;2.57;;;15.40;99.90;;;;;;5034994;28;20188;-80
2022/09/04 06:21:20;;;;;;;2.63;2.43;;;15.40;99.90;;;;;;5033217;28;20552;-81
2022/09/04 06:24:23;;;;;;;2.70;2.30;;;15.60;99.90;;;;;;5033754;28;20203;-80
2022/09/04 06:27:00;;;;;;;4.33;2.40;;;15.60;99.90;;;;;;5033407;28;20199;-80
2022/09/04 06:30:00;;;;;;;3.07;2.77;;;15.70;99.90;;;;;;5034713;28;20194;-81
2022/09/04 06:32:35;;;;;;;2.67;2.47;;;15.80;99.90;;;;;;5033947;28;20681;-80
2022/09/04 06:35:31;;;;;;;3.00;2.70;;;15.90;99.90;;;;;;5034700;28;20152;-80
2022/09/04 06:38:00;;;;;;;3.17;2.20;;;15.90;99.90;;;;;;5034904;28;20271;-81
2022/09/04 06:40:58;;;;;;;4.27;2.63;;;16.00;99.90;;;;;;5035029;28;20169;-80
2022/09/04 06:43:43;;;;;;;3.60;3.00;;;16.10;99.90;;;;;;5033964;28;20187;-81
2022/09/04 06:46:22;;;;;;;2.70;2.47;;;16.20;99.90;;;;;;5034434;28;20161;-80
2022/09/04 06:49:14;;;;;;;3.80;3.23;;;16.30;99.90;;;;;;5034719;28;20213;-80
2022/09/04 06:51:52;;;;;;;3.57;2.67;;;16.40;99.90;;;;;;5034752;28;20535;-81
2022/09/04 06:54:36;;;;;;;3.67;2.97;;;16.50;99.90;;;;;;5033528;28;20260;-82
2022/09/04 06:57:31;;;;;;;3.47;2.77;;;16.60;99.90;;;;;;5034471;28;20581;-80
2022/09/04 07:00:13;;;;;;;3.40;3.10;;;16.60;99.90;;;;;;5033219;28;20218;-79
2022/09/04 07:03:00;;;;;;;3.17;2.50;;;16.70;99.90;;;;;;5019490;28;20211;-81
2022/09/04 07:05:54;;;;;;;3.97;2.67;;;16.90;99.90;;;;;;5019709;28;20172;-80
2022/09/04 07:08:40;;;;;;;5.17;2.20;;;16.90;99.90;;;;;;5023197;28;20205;-81
2022/09/04 07:11:30;;;;;;;5.80;2.60;;;17.00;99.90;;;;;;5033746;28;20180;-80
2022/09/04 07:14:28;;;;;;;2.93;2.73;;;17.10;99.90;;;;;;5033915;28;20184;-79
2022/09/04 07:17:10;;;;;;;3.13;2.33;;;17.20;99.90;;;;;;5032772;28;20311;-80
2022/09/04 07:20:03;;;;;;;2.60;2.40;;;17.30;99.90;;;;;;5034540;28;20171;-81
2022/09/04 07:22:46;;;;;;;3.57;2.93;;;17.40;99.90;;;;;;5033985;28;20157;-80
2022/09/04 07:25:25;;;;;;;3.40;2.23;;;17.50;99.90;;;;;;5034141;28;20153;-80
2022/09/04 07:27:54;;;;;;;2.57;2.00;;;17.50;99.90;;;;;;5030015;28;20191;-80
2022/09/04 07:30:24;;;;;;;2.87;2.20;;;17.60;99.90;;;;;;5028033;28;20235;-80
2022/09/04 07:33:01;;;;;;;2.53;2.07;;;17.70;99.90;;;;;;5028788;28;20195;-80
2022/09/04 07:35:53;;;;;;;2.83;2.33;;;17.80;99.90;;;;;;5027136;28;20169;-82
2022/09/04 07:38:51;;;;;;;2.10;1.97;;;17.90;99.90;;;;;;5025958;28;20164;-81
2022/09/04 07:41:47;;;;;;;3.00;2.20;;;18.00;99.90;;;;;;5028886;28;20176;-82
2022/09/04 07:44:32;;;;;;;2.83;2.20;;;18.00;34.40;;;;;;5025835;28;20179;-80
2022/09/04 07:47:11;;;;;;;2.83;2.00;;;18.20;1.00;;;;;;5028728;28;20685;-80
2022/09/04 07:49:51;;;;;;;3.67;2.17;;;18.30;1.00;;;;;;5026816;28;20199;-81
2022/09/04 07:52:40;;;;;;;2.93;2.30;;;18.30;1.00;;;;;;5023948;28;20538;-79
2022/09/04 07:55:42;;;;;;;3.00;2.10;;;18.40;1.00;;;;;;5017749;28;20169;-81
2022/09/04 07:58:32;;;;;;;2.50;2.27;;;18.50;99.90;;;;;;5010559;28;20299;-81
2022/09/04 08:01:22;;;;;;;2.10;1.80;;;18.70;99.90;;;;;;5023969;28;20175;-81
2022/09/04 08:04:15;;;;;;;2.40;2.00;;;18.70;1.00;;;;;;5032188;28;20231;-80
2022/09/04 08:06:55;;;;;;;2.10;1.90;;;18.80;99.90;;;;;;5017028;28;20196;-81
2022/09/04 08:09:26;;;;;;;3.40;2.30;;;18.90;5.70;;;;;;5016065;28;20189;-80
2022/09/04 08:12:24;;;;;;;2.13;1.93;;;19.00;1.00;;;;;;5015338;28;20188;-81
2022/09/04 08:14:54;;;;;;;3.40;2.30;;;19.20;24.70;;;;;;5031730;28;20246;-81
2022/09/04 08:17:42;;;;;;;2.50;2.07;;;19.30;99.90;;;;;;5022941;28;20250;-81
2022/09/04 08:20:27;;;;;;;2.00;1.73;;;19.30;99.90;;;;;;5035750;28;20603;-81
2022/09/04 08:23:04;;;;;;;3.10;1.90;;;19.40;99.90;;;;;;5018154;28;20639;-78
2022/09/04 08:25:48;;;;;;;4.53;2.30;;;19.50;99.90;;;;;;5016570;28;20624;-81
2022/09/04 08:28:38;;;;;;;3.60;2.23;;;19.50;1.00;;;;;;5014704;28;20193;-77
2022/09/04 08:31:52;;;;;;;3.10;2.67;;;19.60;1.00;;;;;;5016671;28;20251;-78
2022/09/04 08:34:42;;;;;;;3.40;2.23;;;19.90;1.00;;;;;;4992603;28;20173;-78
2022/09/04 08:37:35;;;;;;;2.97;2.67;;;19.90;99.90;;;;;;5035583;28;20188;-81
2022/09/04 08:40:37;;;;;;;2.90;2.10;;;20.00;99.90;;;;;;5036478;28;20526;-80
2022/09/04 08:43:52;;;;;;;2.43;1.97;;;20.10;80.20;;;;;;5033800;28;20180;-81
2022/09/04 08:46:31;;;;;;;3.70;2.10;;;20.20;1.00;;;;;;5012789;28;20298;-81
2022/09/04 08:49:09;;;;;;;2.37;2.13;;;20.30;1.00;;;;;;5034803;28;20268;-81
2022/09/04 08:51:55;;;;;;;3.27;2.20;;;20.40;1.00;;;;;;5034882;28;20168;-78
2022/09/04 08:54:49;;;;;;;3.40;2.47;;;20.50;1.00;;;;;;5033612;28;20541;-78
2022/09/04 08:57:52;;;;;;;4.70;2.50;;;20.70;1.00;;;;;;5034899;28;20208;-77
2022/09/04 09:00:47;;;;;;;2.90;2.30;;;20.70;1.00;;;;;;5035073;28;20643;-77
2022/09/04 09:03:43;;;;;;;3.30;2.30;;;20.80;1.00;;;;;;5034709;28;20570;-77
2022/09/04 09:06:50;;;;;;;5.43;1.73;;;20.90;1.00;;;;;;5033481;28;20275;-81
2022/09/04 09:09:34;;;;;;;2.80;2.30;;;21.00;1.00;;;;;;5036364;28;20184;-81
2022/09/04 09:12:19;;;;;;;2.37;1.93;;;21.00;99.90;;;;;;5035779;28;20226;-81
2022/09/04 09:15:15;;;;;;;3.47;2.20;;;21.10;99.90;;;;;;5035857;28;20157;-81
2022/09/04 09:18:16;;;;;;;2.30;2.00;;;21.20;99.90;;;;;;5035821;28;20188;-80
2022/09/04 09:20:53;;;;;;;4.23;2.13;;;21.30;99.90;;;;;;5034874;28;20173;-81
2022/09/04 09:23:38;;;;;;;1.93;1.73;;;21.50;1.00;;;;;;5036039;28;20154;-80
2022/09/04 09:26:09;;;;;;;3.23;1.97;;;21.60;1.00;;;;;;5035828;28;20179;-80
2022/09/04 09:28:54;;;;;;;2.73;1.87;;;21.60;7.80;;;;;;5035638;28;20196;-81
2022/09/04 09:31:41;;;;;;;2.30;1.70;;;21.70;97.00;;;;;;5036095;28;20156;-81
2022/09/04 09:34:44;;;;;;;4.23;2.00;;;21.80;2.40;;;;;;5035025;28;20160;-79
2022/09/04 09:37:40;;;;;;;4.47;2.20;;;21.80;1.00;;;;;;5035301;28;20271;-81
2022/09/04 09:40:20;;;;;;;3.17;1.67;;;21.90;1.00;;;;;;5034896;28;20160;-81
2022/09/04 09:42:46;;;;;;;5.20;2.00;;;22.00;1.00;;;;;;5033591;28;20175;-82
2022/09/04 09:45:43;;;;;;;2.87;1.97;;;22.10;1.00;;;;;;5035874;28;20654;-82
2022/09/04 09:48:26;;;;;;;2.57;1.90;;;22.10;1.00;;;;;;5030141;28;20205;-77
2022/09/04 09:51:09;;;;;;;2.47;1.63;;;22.20;99.90;;;;;;5032562;28;20637;-76
2022/09/04 09:54:02;;;;;;;3.60;1.90;;;22.30;99.90;;;;;;5032444;28;20263;-78
2022/09/04 09:56:54;;;;;;;5.03;2.40;;;22.40;99.90;;;;;;5033758;28;20287;-77
2022/09/04 09:59:35;;;;;;;2.37;1.60;;;22.50;99.90;;;;;;5034467;28;20199;-79
2022/09/04 10:02:19;;;;;;;3.33;2.10;;;22.50;99.90;;;;;;5036863;28;20653;-82
2022/09/04 10:04:50;;;;;;;5.10;2.00;;;22.60;99.90;;;;;;5037158;28;20157;-81
2022/09/04 10:07:40;;;;;;;2.83;1.97;;;22.70;1.00;;;;;;5036770;28;20192;-83
2022/09/04 10:10:39;;;;;;;3.27;2.20;;;22.90;99.90;;;;;;5035229;28;20223;-82
2022/09/04 10:13:32;;;;;;;2.40;1.80;;;23.10;99.90;;;;;;5034938;28;20161;-78
2022/09/04 10:16:35;;;;;;;3.20;1.90;;;23.20;1.00;;;;;;5035350;28;20555;-78
2022/09/04 10:19:04;;;;;;;3.53;2.40;;;23.20;6.40;;;;;;5035609;28;20179;-78
2022/09/04 10:21:53;;;;;;;4.13;1.90;;;23.40;1.00;;;;;;5035584;28;20168;-79
2022/09/04 10:25:14;;;;;;;3.37;2.50;;;23.60;1.00;;;;;;5036226;28;20160;-79
2022/09/04 10:28:18;;;;;;;2.07;1.87;;;23.60;1.00;;;;;;4959939;28;20203;-79
2022/09/04 10:38:07;;;;;;;2.97;2.03;;;23.80;1.00;;;;;;5041568;28;20198;-83
2022/09/04 10:41:07;;;;;;;3.00;1.77;;;24.00;99.90;;;;;;5038832;28;20172;-83
2022/09/04 10:44:00;;;;;;;1.73;1.50;;;24.00;99.90;;;;;;5040248;28;20160;-82
2022/09/04 10:46:59;;;;;;;4.63;1.67;;;24.10;1.00;;;;;;5048023;28;20204;-82
2022/09/04 10:49:40;;;;;;;3.00;1.73;;;24.10;1.00;;;;;;5044018;28;20246;-82
2022/09/04 10:52:23;;;;;;;3.23;1.70;;;24.20;99.90;;;;;;5035797;28;20179;-80
2022/09/04 10:55:30;;;;;;;2.30;1.80;;;24.30;1.00;;;;;;5034753;28;20161;-83
2022/09/04 10:58:23;;;;;;;2.13;1.80;;;24.40;99.90;;;;;;5016502;28;20223;-81
2022/09/04 11:01:26;;;;;;;4.13;1.40;;;24.40;99.90;;;;;;5033673;28;20175;-81
2022/09/04 11:04:19;;;;;;;1.77;1.57;;;24.50;99.90;;;;;;5033846;28;20180;-81
2022/09/04 11:06:54;;;;;;;3.20;1.60;;;24.60;99.90;;;;;;5037501;28;20784;-81
2022/09/04 11:09:31;;;;;;;2.00;1.40;;;24.70;1.00;;;;;;5112675;22;20260;-82
2022/09/04 11:12:29;;;;;;;1.60;1.50;;;24.80;62.70;;;;;;5093328;28;20159;-79
2022/09/04 11:15:22;;;;;;;1.47;1.33;;;24.80;1.00;;;;;;5086235;28;20148;-79
2022/09/04 11:18:18;;;;;;;1.80;1.40;;;24.90;99.90;;;;;;5077484;28;20665;-79
2022/09/04 11:20:43;;;;;;;2.10;1.47;;;25.00;77.10;;;;;;5062212;28;20246;-80
2022/09/04 11:24:03;;;;;;;2.35;1.60;;;25.00;1.00;;;;;;5063442;28;20175;-80
2022/09/04 11:27:08;;;;;;;2.20;1.50;;;25.20;1.00;;;;;;5064667;28;20613;-80
2022/09/04 11:29:54;;;;;;;5.43;1.80;;;25.30;1.00;;;;;;5064357;28;20782;-80
2022/09/04 11:32:39;;;;;;;3.20;1.90;;;25.20;1.00;;;;;;5060109;28;20160;-78
2022/09/04 11:35:45;;;;;;;1.60;1.20;;;25.10;1.00;;;;;;5056921;28;20159;-78
2022/09/04 11:38:16;;;;;;;4.22;1.30;;;25.10;1.00;;;;;;5058472;28;20162;-81
2022/09/04 11:40:56;;;;;;;2.33;1.63;;;25.10;1.00;;;;;;5060872;28;20151;-79
2022/09/04 11:43:53;;;;;;;2.70;1.65;;;25.00;1.00;;;;;;5061411;28;20183;-79
2022/09/04 11:46:43;;;;;;;1.52;1.42;;;25.00;1.00;;;;;;5061301;28;20163;-79
2022/09/04 11:49:40;;;;;;;2.30;1.65;;;25.20;1.00;;;;;;5061279;28;20336;-78
2022/09/04 11:52:13;;;;;;;1.65;1.52;;;25.30;99.90;;;;;;5060726;28;20156;-79
2022/09/04 11:54:42;;;;;;;2.03;1.40;;;25.40;99.90;;;;;;5059015;28;20259;-79
2022/09/04 11:57:39;;;;;;;1.60;1.50;;;25.70;99.90;;;;;;5059840;28;20168;-81
2022/09/04 12:00:07;;;;;;;2.22;1.40;;;25.60;99.90;;;;;;5060793;28;20210;-79
2022/09/04 12:02:44;;;;;;;3.17;1.52;;;25.70;99.90;;;;;;5062694;28;20649;-80
2022/09/04 12:05:43;;;;;;;1.48;1.30;;;25.60;99.90;;;;;;5062519;28;20659;-80
2022/09/04 12:08:45;;;;;;;1.65;1.38;;;25.50;99.90;;;;;;5062934;28;20152;-81
2022/09/04 12:11:36;;;;;;;1.33;1.23;;;25.50;99.90;;;;;;5060336;28;20151;-79
2022/09/04 12:14:34;;;;;;;1.40;1.20;;;25.50;99.90;;;;;;5055735;28;20179;-79
2022/09/04 12:17:24;;;;;;;1.52;1.42;;;25.50;99.90;;;;;;5057094;28;20621;-79
2022/09/04 12:20:15;;;;;;;1.42;1.05;;;25.50;99.90;;;;;;5055590;28;20618;-79
2022/09/04 12:22:54;;;;;;;1.48;1.13;;;25.60;55.50;;;;;;5056731;28;20162;-79
2022/09/04 12:25:41;;;;;;;2.00;1.27;;;25.50;1.00;;;;;;5057475;28;20191;-80
2022/09/04 12:28:36;;;;;;;2.45;1.27;;;25.60;90.40;;;;;;5056894;28;20160;-78
2022/09/04 12:31:30;;;;;;;1.52;1.40;;;25.80;1.00;;;;;;5056848;28;20176;-79
2022/09/04 12:34:29;;;;;;;1.60;1.40;;;26.00;1.00;;;;;;5056855;28;20243;-79
2022/09/04 12:37:20;;;;;;;6.93;1.63;;;26.20;17.60;;;;;;5057139;28;20164;-78
2022/09/04 12:40:33;;;;;;;1.77;1.27;;;26.40;1.00;;;;;;5056079;28;20245;-79
2022/09/04 12:43:15;;;;;;;2.05;0.95;;;26.60;1.00;;;;;;5047533;28;20687;-78
2022/09/04 12:46:16;;;;;;;1.85;1.20;;;26.80;1.00;;;;;;5057949;28;20160;-78
2022/09/04 12:48:50;;;;;;;1.55;0.95;;;26.70;1.00;;;;;;5057903;28;20204;-79
2022/09/04 12:51:21;;;;;;;1.48;1.10;;;26.60;1.00;;;;;;5061171;28;20167;-79
2022/09/04 12:54:02;;;;;;;2.20;1.05;;;26.60;1.00;;;;;;5063716;28;20262;-79
2022/09/04 12:56:41;;;;;;;1.00;0.90;;;26.60;99.90;;;;;;5064046;28;20163;-79
2022/09/04 12:59:25;;;;;;;2.40;1.10;;;26.70;1.00;;;;;;5060671;28;20199;-80
2022/09/04 13:02:15;;;;;;;1.63;1.05;;;26.70;1.00;;;;;;5061311;28;20618;-81
2022/09/04 13:04:54;;;;;;;1.15;1.05;;;26.90;1.00;;;;;;5060012;28;20638;-80
2022/09/04 13:07:30;;;;;;;1.20;1.10;;;26.90;99.90;;;;;;5061327;28;20160;-80
2022/09/04 13:10:09;;;;;;;2.80;1.00;;;26.80;1.00;;;;;;5060724;28;20249;-80
2022/09/04 13:13:12;;;;;;;2.55;1.20;;;26.70;1.00;;;;;;5060644;28;20163;-81
2022/09/04 13:16:00;;;;;;;2.30;1.10;;;26.70;1.00;;;;;;5064846;28;20606;-80
2022/09/04 13:18:33;;;;;;;2.65;1.20;;;26.90;1.00;;;;;;5065303;28;20531;-80
2022/09/04 13:21:21;;;;;;;1.58;0.95;;;26.90;1.00;;;;;;5064381;28;20144;-80
2022/09/04 13:24:27;;;;;;;2.55;1.05;;;26.90;1.00;;;;;;5065440;28;20156;-80
2022/09/04 13:27:14;;;;;;;1.10;1.00;;;27.00;99.90;;;;;;5066989;28;20144;-80
2022/09/04 13:30:04;;;;;;;1.45;0.90;;;27.10;99.90;;;;;;5064943;28;20203;-80
2022/09/04 13:32:48;;;;;;;1.00;0.70;;;27.10;99.90;;;;;;5066307;28;20148;-80
2022/09/04 13:35:42;;;;;;;1.83;0.93;;;27.20;99.90;;;;;;5065182;28;20254;-80
2022/09/04 13:38:34;;;;;;;2.28;0.80;;;27.20;99.90;;;;;;5064186;28;20164;-80
2022/09/04 13:41:56;;;;;;;1.60;1.13;;;27.20;99.90;;;;;;5065606;28;20194;-80
2022/09/04 13:44:47;;;;;;;1.20;0.90;;;27.20;99.90;;;;;;5046871;28;20194;-80
2022/09/04 13:47:20;;;;;;;2.78;1.05;;;27.40;99.90;;;;;;5046527;28;20172;-80
2022/09/04 13:50:21;;;;;;;2.33;1.25;;;27.40;99.90;;;;;;5052415;28;20649;-80
2022/09/04 13:52:56;;;;;;;2.72;0.90;;;27.60;99.90;;;;;;5058121;28;20263;-81
2022/09/04 13:55:26;;;;;;;1.23;1.13;;;27.70;99.90;;;;;;5064185;28;20163;-81
2022/09/04 13:58:04;;;;;;;2.88;1.08;;;27.70;99.90;;;;;;5062347;28;20175;-80
2022/09/04 14:00:33;;;;;;;0.98;0.93;;;27.80;99.90;;;;;;5063462;28;20183;-80
2022/09/04 14:03:06;;;;;;;0.90;0.80;;;27.90;99.90;;;;;;5067635;28;20186;-81
2022/09/04 14:05:36;;;;;;;1.42;0.90;;;28.10;99.90;;;;;;5069306;28;20155;-79
2022/09/04 14:08:07;;;;;;;3.00;1.00;;;27.90;99.90;;;;;;5065859;28;20171;-80
2022/09/04 14:10:57;;;;;;;3.30;1.10;;;27.90;99.90;;;;;;5064082;28;20210;-80
2022/09/04 14:13:45;;;;;;;0.88;0.80;;;27.90;99.90;;;;;;5057631;28;20164;-79
2022/09/04 14:16:13;;;;;;;2.42;0.70;;;28.10;99.90;;;;;;5055588;28;20156;-79
2022/09/04 14:19:01;;;;;;;1.58;1.10;;;28.00;99.90;;;;;;5055131;28;20207;-79
2022/09/04 14:21:45;;;;;;;1.30;1.10;;;28.10;99.90;;;;;;5055304;28;20638;-80
2022/09/04 14:24:31;;;;;;;1.70;1.00;;;28.10;99.90;;;;;;5055295;28;20250;-80
2022/09/04 14:27:22;;;;;;;1.60;1.02;;;28.20;99.90;;;;;;5055021;28;20166;-79
2022/09/04 14:30:05;;;;;;;1.00;0.90;;;28.20;99.90;;;;;;5055038;28;20688;-79
2022/09/04 14:32:38;;;;;;;1.95;1.20;;;28.20;99.90;;;;;;5055539;28;20144;-82
2022/09/04 14:35:17;;;;;;;1.15;1.05;;;28.10;99.90;;;;;;5057231;28;20168;-82